sensor_id;sensor_type;location;lat;lon;timestamp;temperature;humidity
30999;DHT22;20549;50.042;8.968;2023-03-14T00:00:17;13.00;99.90
30999;DHT22;20549;50.042;8.968;2023-03-14T00:02:44;13.10;99.90
30999;DHT22;20549;50.042;8.968;2023-03-14T00:05:10;13.10;99.90
30999;DHT22;20549;50.042;8.968;2023-03-14T00:07:37;13.20;99.90
30999;DHT22;20549;50.042;8.968;2023-03-14T00:10:07;13.20;99.90
30999;DHT22;20549;50.042;8.968;2023-03-14T00:12:33;13.30;99.70
30999;DHT22;20549;50.042;8.968;2023-03-14T00:14:59;13.30;99.50
30999;DHT22;20549;50.042;8.968;2023-03-14T00:17:26;13.30;99.30
30999;DHT22;20549;50.042;8.968;2023-03-14T00:19:53;13.40;99.20
30999;DHT22;20549;50.042;8.968;2023-03-14T00:22:20;13.40;99.00
30999;DHT22;20549;50.042;8.968;2023-03-14T00:24:46;13.40;98.80
30999;DHT22;20549;50.042;8.968;2023-03-14T00:27:12;13.40;98.80
30999;DHT22;20549;50.042;8.968;2023-03-14T00:29:39;13.40;98.50
30999;DHT22;20549;50.042;8.968;2023-03-14T00:32:06;13.40;98.40
30999;DHT22;20549;50.042;8.968;2023-03-14T00:34:32;13.40;98.30
30999;DHT22;20549;50.042;8.968;2023-03-14T00:36:59;13.40;98.20
30999;DHT22;20549;50.042;8.968;2023-03-14T00:39:25;13.40;98.20
30999;DHT22;20549;50.042;8.968;2023-03-14T00:41:52;13.50;98.20
30999;DHT22;20549;50.042;8.968;2023-03-14T00:44:19;13.50;98.00
30999;DHT22;20549;50.042;8.968;2023-03-14T00:46:45;13.50;97.90
30999;DHT22;20549;50.042;8.968;2023-03-14T00:49:12;13.50;97.80
30999;DHT22;20549;50.042;8.968;2023-03-14T00:51:38;13.50;97.70
30999;DHT22;20549;50.042;8.968;2023-03-14T00:54:05;13.50;97.60
30999;DHT22;20549;50.042;8.968;2023-03-14T00:56:31;13.50;97.50
30999;DHT22;20549;50.042;8.968;2023-03-14T00:58:58;13.50;97.40
30999;DHT22;20549;50.042;8.968;2023-03-14T01:01:25;13.50;97.40
30999;DHT22;20549;50.042;8.968;2023-03-14T01:03:52;13.50;97.30
30999;DHT22;20549;50.042;8.968;2023-03-14T01:06:22;13.40;97.30
30999;DHT22;20549;50.042;8.968;2023-03-14T01:08:47;13.40;97.30
30999;DHT22;20549;50.042;8.968;2023-03-14T01:11:15;13.40;97.40
30999;DHT22;20549;50.042;8.968;2023-03-14T01:13:40;13.50;97.40
30999;DHT22;20549;50.042;8.968;2023-03-14T01:16:08;13.40;97.40
30999;DHT22;20549;50.042;8.968;2023-03-14T01:18:34;13.50;97.30
30999;DHT22;20549;50.042;8.968;2023-03-14T01:21:02;13.50;97.30
30999;DHT22;20549;50.042;8.968;2023-03-14T01:23:27;13.40;97.10
30999;DHT22;20549;50.042;8.968;2023-03-14T01:25:53;13.40;97.30
30999;DHT22;20549;50.042;8.968;2023-03-14T01:28:20;13.40;97.20
30999;DHT22;20549;50.042;8.968;2023-03-14T01:30:47;13.40;97.30
30999;DHT22;20549;50.042;8.968;2023-03-14T01:33:13;13.40;97.30
30999;DHT22;20549;50.042;8.968;2023-03-14T01:35:40;13.40;97.30
30999;DHT22;20549;50.042;8.968;2023-03-14T01:38:06;13.40;97.40
30999;DHT22;20549;50.042;8.968;2023-03-14T01:40:33;13.40;97.40
30999;DHT22;20549;50.042;8.968;2023-03-14T01:43:06;13.40;97.40
30999;DHT22;20549;50.042;8.968;2023-03-14T01:48:44;13.30;97.40
30999;DHT22;20549;50.042;8.968;2023-03-14T01:51:29;13.30;97.30
30999;DHT22;20549;50.042;8.968;2023-03-14T01:53:54;13.30;97.10
30999;DHT22;20549;50.042;8.968;2023-03-14T01:56:20;13.30;96.90
30999;DHT22;20549;50.042;8.968;2023-03-14T01:58:47;13.30;96.90
30999;DHT22;20549;50.042;8.968;2023-03-14T02:01:13;13.30;96.90
30999;DHT22;20549;50.042;8.968;2023-03-14T02:03:44;13.30;97.00
30999;DHT22;20549;50.042;8.968;2023-03-14T02:06:06;13.30;97.00
30999;DHT22;20549;50.042;8.968;2023-03-14T02:08:33;13.30;96.90
30999;DHT22;20549;50.042;8.968;2023-03-14T02:10:59;13.30;97.00
30999;DHT22;20549;50.042;8.968;2023-03-14T02:13:26;13.30;97.00
30999;DHT22;20549;50.042;8.968;2023-03-14T02:15:52;13.30;96.90
30999;DHT22;20549;50.042;8.968;2023-03-14T02:18:19;13.30;96.80
30999;DHT22;20549;50.042;8.968;2023-03-14T02:20:51;13.30;96.80
30999;DHT22;20549;50.042;8.968;2023-03-14T02:23:15;13.30;96.80
30999;DHT22;20549;50.042;8.968;2023-03-14T02:25:55;13.30;96.90
30999;DHT22;20549;50.042;8.968;2023-03-14T02:28:20;13.30;96.80
30999;DHT22;20549;50.042;8.968;2023-03-14T02:30:46;13.30;96.90
30999;DHT22;20549;50.042;8.968;2023-03-14T02:33:14;13.30;97.00
30999;DHT22;20549;50.042;8.968;2023-03-14T02:35:46;13.30;97.20
30999;DHT22;20549;50.042;8.968;2023-03-14T02:40:51;13.40;97.30
30999;DHT22;20549;50.042;8.968;2023-03-14T02:43:18;13.40;97.30
30999;DHT22;20549;50.042;8.968;2023-03-14T02:45:45;13.50;97.30
30999;DHT22;20549;50.042;8.968;2023-03-14T02:48:15;13.50;97.20
30999;DHT22;20549;50.042;8.968;2023-03-14T02:50:41;13.50;97.10
30999;DHT22;20549;50.042;8.968;2023-03-14T02:53:07;13.50;97.00
30999;DHT22;20549;50.042;8.968;2023-03-14T02:55:34;13.60;96.80
30999;DHT22;20549;50.042;8.968;2023-03-14T02:58:00;13.60;96.70
30999;DHT22;20549;50.042;8.968;2023-03-14T03:00:27;13.60;96.70
30999;DHT22;20549;50.042;8.968;2023-03-14T03:02:53;13.60;96.50
30999;DHT22;20549;50.042;8.968;2023-03-14T03:05:20;13.70;96.10
30999;DHT22;20549;50.042;8.968;2023-03-14T03:07:47;13.60;95.70
30999;DHT22;20549;50.042;8.968;2023-03-14T03:10:13;13.60;95.70
30999;DHT22;20549;50.042;8.968;2023-03-14T03:12:40;13.60;95.60
30999;DHT22;20549;50.042;8.968;2023-03-14T03:15:06;13.60;95.50
30999;DHT22;20549;50.042;8.968;2023-03-14T03:17:33;13.60;95.00
30999;DHT22;20549;50.042;8.968;2023-03-14T03:20:00;13.60;95.20
30999;DHT22;20549;50.042;8.968;2023-03-14T03:22:26;13.60;95.10
30999;DHT22;20549;50.042;8.968;2023-03-14T03:24:53;13.60;95.10
30999;DHT22;20549;50.042;8.968;2023-03-14T03:27:19;13.60;95.20
30999;DHT22;20549;50.042;8.968;2023-03-14T03:29:46;13.50;95.20
30999;DHT22;20549;50.042;8.968;2023-03-14T03:32:13;13.50;95.30
30999;DHT22;20549;50.042;8.968;2023-03-14T03:34:39;13.50;95.50
30999;DHT22;20549;50.042;8.968;2023-03-14T03:37:06;13.50;95.50
30999;DHT22;20549;50.042;8.968;2023-03-14T03:39:32;13.50;95.60
30999;DHT22;20549;50.042;8.968;2023-03-14T03:41:59;13.50;95.60
30999;DHT22;20549;50.042;8.968;2023-03-14T03:44:25;13.50;95.60
30999;DHT22;20549;50.042;8.968;2023-03-14T03:46:52;13.40;95.50
30999;DHT22;20549;50.042;8.968;2023-03-14T03:49:19;13.40;95.50
30999;DHT22;20549;50.042;8.968;2023-03-14T03:51:45;13.40;95.60
30999;DHT22;20549;50.042;8.968;2023-03-14T03:54:12;13.40;95.70
30999;DHT22;20549;50.042;8.968;2023-03-14T03:56:38;13.40;95.70
30999;DHT22;20549;50.042;8.968;2023-03-14T03:59:05;13.40;95.80
30999;DHT22;20549;50.042;8.968;2023-03-14T04:01:32;13.40;95.80
30999;DHT22;20549;50.042;8.968;2023-03-14T04:03:58;13.40;95.70
30999;DHT22;20549;50.042;8.968;2023-03-14T04:06:25;13.40;95.50
30999;DHT22;20549;50.042;8.968;2023-03-14T04:08:51;13.40;95.30
30999;DHT22;20549;50.042;8.968;2023-03-14T04:11:18;13.30;95.20
30999;DHT22;20549;50.042;8.968;2023-03-14T04:13:45;13.30;95.10
30999;DHT22;20549;50.042;8.968;2023-03-14T04:16:19;13.30;95.00
30999;DHT22;20549;50.042;8.968;2023-03-14T04:18:44;13.30;94.90
30999;DHT22;20549;50.042;8.968;2023-03-14T04:21:10;13.30;94.70
30999;DHT22;20549;50.042;8.968;2023-03-14T04:23:37;13.30;94.70
30999;DHT22;20549;50.042;8.968;2023-03-14T04:26:03;13.30;94.60
30999;DHT22;20549;50.042;8.968;2023-03-14T04:28:30;13.30;94.60
30999;DHT22;20549;50.042;8.968;2023-03-14T04:30:57;13.20;94.40
30999;DHT22;20549;50.042;8.968;2023-03-14T04:33:23;13.20;94.30
30999;DHT22;20549;50.042;8.968;2023-03-14T04:35:52;13.20;94.20
30999;DHT22;20549;50.042;8.968;2023-03-14T04:38:16;13.20;94.20
30999;DHT22;20549;50.042;8.968;2023-03-14T04:40:43;13.20;94.10
30999;DHT22;20549;50.042;8.968;2023-03-14T04:43:10;13.20;94.00
30999;DHT22;20549;50.042;8.968;2023-03-14T04:45:36;13.20;94.10
30999;DHT22;20549;50.042;8.968;2023-03-14T04:48:03;13.20;94.10
30999;DHT22;20549;50.042;8.968;2023-03-14T04:50:29;13.20;94.20
30999;DHT22;20549;50.042;8.968;2023-03-14T04:52:56;13.20;94.10
30999;DHT22;20549;50.042;8.968;2023-03-14T04:55:22;13.10;94.00
30999;DHT22;20549;50.042;8.968;2023-03-14T04:57:49;13.10;94.00
30999;DHT22;20549;50.042;8.968;2023-03-14T05:00:16;13.10;94.10
30999;DHT22;20549;50.042;8.968;2023-03-14T05:02:42;13.10;94.20
30999;DHT22;20549;50.042;8.968;2023-03-14T05:05:09;13.10;94.20
30999;DHT22;20549;50.042;8.968;2023-03-14T05:07:35;13.10;94.40
30999;DHT22;20549;50.042;8.968;2023-03-14T05:10:02;13.20;94.50
30999;DHT22;20549;50.042;8.968;2023-03-14T05:12:29;13.20;94.60
30999;DHT22;20549;50.042;8.968;2023-03-14T05:14:55;13.20;94.60
30999;DHT22;20549;50.042;8.968;2023-03-14T05:17:22;13.20;94.60
30999;DHT22;20549;50.042;8.968;2023-03-14T05:19:48;13.30;94.60
30999;DHT22;20549;50.042;8.968;2023-03-14T05:22:15;13.30;94.60
30999;DHT22;20549;50.042;8.968;2023-03-14T05:24:42;13.40;94.50
30999;DHT22;20549;50.042;8.968;2023-03-14T05:27:08;13.40;94.40
30999;DHT22;20549;50.042;8.968;2023-03-14T05:29:35;13.40;94.20
30999;DHT22;20549;50.042;8.968;2023-03-14T05:32:01;13.50;94.10
30999;DHT22;20549;50.042;8.968;2023-03-14T05:34:28;13.50;94.00
30999;DHT22;20549;50.042;8.968;2023-03-14T05:36:54;13.50;94.00
30999;DHT22;20549;50.042;8.968;2023-03-14T05:39:21;13.50;93.90
30999;DHT22;20549;50.042;8.968;2023-03-14T05:41:48;13.50;93.80
30999;DHT22;20549;50.042;8.968;2023-03-14T05:44:14;13.60;93.70
30999;DHT22;20549;50.042;8.968;2023-03-14T05:46:41;13.60;93.60
30999;DHT22;20549;50.042;8.968;2023-03-14T05:49:07;13.60;93.50
30999;DHT22;20549;50.042;8.968;2023-03-14T05:51:34;13.60;93.30
30999;DHT22;20549;50.042;8.968;2023-03-14T05:54:01;13.60;93.20
30999;DHT22;20549;50.042;8.968;2023-03-14T05:56:27;13.70;93.20
30999;DHT22;20549;50.042;8.968;2023-03-14T05:58:54;13.70;93.00
30999;DHT22;20549;50.042;8.968;2023-03-14T06:01:20;13.70;93.00
30999;DHT22;20549;50.042;8.968;2023-03-14T06:03:47;13.70;92.80
30999;DHT22;20549;50.042;8.968;2023-03-14T06:06:14;13.70;92.80
30999;DHT22;20549;50.042;8.968;2023-03-14T06:08:40;13.80;92.70
30999;DHT22;20549;50.042;8.968;2023-03-14T06:11:07;13.80;92.50
30999;DHT22;20549;50.042;8.968;2023-03-14T06:13:33;13.80;92.50
30999;DHT22;20549;50.042;8.968;2023-03-14T06:16:00;13.80;92.70
30999;DHT22;20549;50.042;8.968;2023-03-14T06:18:26;13.80;92.80
30999;DHT22;20549;50.042;8.968;2023-03-14T06:20:53;13.80;92.80
30999;DHT22;20549;50.042;8.968;2023-03-14T06:23:20;13.80;93.00
30999;DHT22;20549;50.042;8.968;2023-03-14T06:25:46;13.80;93.10
30999;DHT22;20549;50.042;8.968;2023-03-14T06:28:13;13.70;93.10
30999;DHT22;20549;50.042;8.968;2023-03-14T06:30:39;13.60;93.20
30999;DHT22;20549;50.042;8.968;2023-03-14T06:33:06;13.60;93.20
30999;DHT22;20549;50.042;8.968;2023-03-14T06:35:33;13.50;93.30
30999;DHT22;20549;50.042;8.968;2023-03-14T06:37:59;13.50;93.50
30999;DHT22;20549;50.042;8.968;2023-03-14T06:40:26;13.40;93.60
30999;DHT22;20549;50.042;8.968;2023-03-14T06:42:52;13.40;93.70
30999;DHT22;20549;50.042;8.968;2023-03-14T06:45:19;13.40;93.70
30999;DHT22;20549;50.042;8.968;2023-03-14T06:47:46;13.40;93.80
30999;DHT22;20549;50.042;8.968;2023-03-14T06:50:12;13.40;94.00
30999;DHT22;20549;50.042;8.968;2023-03-14T06:52:39;13.40;94.10
30999;DHT22;20549;50.042;8.968;2023-03-14T06:55:08;13.40;94.10
30999;DHT22;20549;50.042;8.968;2023-03-14T06:57:35;13.40;94.00
30999;DHT22;20549;50.042;8.968;2023-03-14T07:00:02;13.40;94.30
30999;DHT22;20549;50.042;8.968;2023-03-14T07:02:28;13.40;94.00
30999;DHT22;20549;50.042;8.968;2023-03-14T07:04:54;13.40;94.00
30999;DHT22;20549;50.042;8.968;2023-03-14T07:07:21;13.40;94.00
30999;DHT22;20549;50.042;8.968;2023-03-14T07:09:48;13.50;94.00
30999;DHT22;20549;50.042;8.968;2023-03-14T07:12:14;13.50;93.80
30999;DHT22;20549;50.042;8.968;2023-03-14T07:14:41;13.50;93.80
30999;DHT22;20549;50.042;8.968;2023-03-14T07:17:07;13.60;93.70
30999;DHT22;20549;50.042;8.968;2023-03-14T07:19:34;13.60;93.50
30999;DHT22;20549;50.042;8.968;2023-03-14T07:22:01;13.60;93.40
30999;DHT22;20549;50.042;8.968;2023-03-14T07:24:27;13.60;93.20
30999;DHT22;20549;50.042;8.968;2023-03-14T07:26:54;13.70;93.20
30999;DHT22;20549;50.042;8.968;2023-03-14T07:29:20;13.70;93.00
30999;DHT22;20549;50.042;8.968;2023-03-14T07:31:47;13.80;92.80
30999;DHT22;20549;50.042;8.968;2023-03-14T07:34:13;13.80;92.70
30999;DHT22;20549;50.042;8.968;2023-03-14T07:36:40;13.90;92.40
30999;DHT22;20549;50.042;8.968;2023-03-14T07:39:07;13.90;92.50
30999;DHT22;20549;50.042;8.968;2023-03-14T07:41:33;14.00;92.20
30999;DHT22;20549;50.042;8.968;2023-03-14T07:44:00;14.00;92.30
30999;DHT22;20549;50.042;8.968;2023-03-14T07:46:26;14.10;92.30
30999;DHT22;20549;50.042;8.968;2023-03-14T07:48:53;14.20;91.80
30999;DHT22;20549;50.042;8.968;2023-03-14T07:51:20;14.30;92.00
30999;DHT22;20549;50.042;8.968;2023-03-14T07:53:46;14.40;91.40
30999;DHT22;20549;50.042;8.968;2023-03-14T07:56:13;14.40;91.30
30999;DHT22;20549;50.042;8.968;2023-03-14T07:58:39;14.40;91.20
30999;DHT22;20549;50.042;8.968;2023-03-14T08:01:06;14.50;91.00
30999;DHT22;20549;50.042;8.968;2023-03-14T08:03:32;14.50;91.00
30999;DHT22;20549;50.042;8.968;2023-03-14T08:05:59;14.50;90.90
30999;DHT22;20549;50.042;8.968;2023-03-14T08:08:26;14.60;90.50
30999;DHT22;20549;50.042;8.968;2023-03-14T08:10:52;14.60;90.10
30999;DHT22;20549;50.042;8.968;2023-03-14T08:13:19;14.70;90.40
30999;DHT22;20549;50.042;8.968;2023-03-14T08:15:47;14.70;90.20
30999;DHT22;20549;50.042;8.968;2023-03-14T08:18:12;14.70;90.00
30999;DHT22;20549;50.042;8.968;2023-03-14T08:20:39;14.80;89.20
30999;DHT22;20549;50.042;8.968;2023-03-14T08:23:05;14.80;89.00
30999;DHT22;20549;50.042;8.968;2023-03-14T08:25:32;14.90;88.60
30999;DHT22;20549;50.042;8.968;2023-03-14T08:27:58;14.90;88.80
30999;DHT22;20549;50.042;8.968;2023-03-14T08:30:25;15.00;88.40
30999;DHT22;20549;50.042;8.968;2023-03-14T08:32:52;15.00;88.30
30999;DHT22;20549;50.042;8.968;2023-03-14T08:35:18;15.00;87.80
30999;DHT22;20549;50.042;8.968;2023-03-14T08:37:45;15.10;86.50
30999;DHT22;20549;50.042;8.968;2023-03-14T08:40:11;15.10;86.80
30999;DHT22;20549;50.042;8.968;2023-03-14T08:42:38;15.10;87.10
30999;DHT22;20549;50.042;8.968;2023-03-14T08:45:05;15.10;86.80
30999;DHT22;20549;50.042;8.968;2023-03-14T08:47:31;15.20;85.20
30999;DHT22;20549;50.042;8.968;2023-03-14T08:49:58;15.20;86.20
30999;DHT22;20549;50.042;8.968;2023-03-14T08:52:25;15.20;86.80
30999;DHT22;20549;50.042;8.968;2023-03-14T08:54:51;15.30;87.40
30999;DHT22;20549;50.042;8.968;2023-03-14T08:57:18;15.40;87.10
30999;DHT22;20549;50.042;8.968;2023-03-14T08:59:44;15.50;86.50
30999;DHT22;20549;50.042;8.968;2023-03-14T09:02:11;15.60;85.90
30999;DHT22;20549;50.042;8.968;2023-03-14T09:04:37;15.60;85.80
30999;DHT22;20549;50.042;8.968;2023-03-14T09:07:04;15.70;86.30
30999;DHT22;20549;50.042;8.968;2023-03-14T09:09:31;15.90;87.30
30999;DHT22;20549;50.042;8.968;2023-03-14T09:11:57;16.10;86.20
30999;DHT22;20549;50.042;8.968;2023-03-14T09:14:24;16.40;86.10
30999;DHT22;20549;50.042;8.968;2023-03-14T09:16:50;16.60;85.60
30999;DHT22;20549;50.042;8.968;2023-03-14T09:19:17;16.80;83.30
30999;DHT22;20549;50.042;8.968;2023-03-14T09:21:44;17.00;83.10
30999;DHT22;20549;50.042;8.968;2023-03-14T09:24:10;17.10;82.10
30999;DHT22;20549;50.042;8.968;2023-03-14T09:26:37;17.10;80.70
30999;DHT22;20549;50.042;8.968;2023-03-14T09:29:03;17.10;79.40
30999;DHT22;20549;50.042;8.968;2023-03-14T09:31:30;17.10;79.90
30999;DHT22;20549;50.042;8.968;2023-03-14T09:33:57;17.10;79.60
30999;DHT22;20549;50.042;8.968;2023-03-14T09:36:23;17.10;78.90
30999;DHT22;20549;50.042;8.968;2023-03-14T09:38:50;17.00;78.50
30999;DHT22;20549;50.042;8.968;2023-03-14T09:41:33;17.00;78.80
30999;DHT22;20549;50.042;8.968;2023-03-14T09:46:36;17.00;78.40
30999;DHT22;20549;50.042;8.968;2023-03-14T09:49:05;17.00;77.50
30999;DHT22;20549;50.042;8.968;2023-03-14T09:51:29;16.90;77.20
30999;DHT22;20549;50.042;8.968;2023-03-14T09:53:56;16.90;77.60
30999;DHT22;20549;50.042;8.968;2023-03-14T09:56:26;16.80;77.50
30999;DHT22;20549;50.042;8.968;2023-03-14T09:58:55;16.90;77.80
30999;DHT22;20549;50.042;8.968;2023-03-14T10:01:20;16.80;78.30
30999;DHT22;20549;50.042;8.968;2023-03-14T10:03:45;16.80;78.70
30999;DHT22;20549;50.042;8.968;2023-03-14T10:06:12;16.90;77.70
30999;DHT22;20549;50.042;8.968;2023-03-14T10:08:41;16.90;76.90
30999;DHT22;20549;50.042;8.968;2023-03-14T10:11:12;16.90;75.80
30999;DHT22;20549;50.042;8.968;2023-03-14T10:13:34;16.80;75.90
30999;DHT22;20549;50.042;8.968;2023-03-14T10:16:01;16.80;76.70
30999;DHT22;20549;50.042;8.968;2023-03-14T10:18:28;16.70;76.90
30999;DHT22;20549;50.042;8.968;2023-03-14T10:21:26;16.70;76.20
30999;DHT22;20549;50.042;8.968;2023-03-14T10:23:51;16.60;76.20
30999;DHT22;20549;50.042;8.968;2023-03-14T10:26:19;16.50;76.00
30999;DHT22;20549;50.042;8.968;2023-03-14T10:29:00;16.50;76.60
30999;DHT22;20549;50.042;8.968;2023-03-14T10:31:24;16.40;76.50
30999;DHT22;20549;50.042;8.968;2023-03-14T10:34:00;16.40;76.40
30999;DHT22;20549;50.042;8.968;2023-03-14T10:36:29;16.30;76.60
30999;DHT22;20549;50.042;8.968;2023-03-14T10:39:04;16.30;77.10
30999;DHT22;20549;50.042;8.968;2023-03-14T10:41:30;16.20;77.50
30999;DHT22;20549;50.042;8.968;2023-03-14T10:43:54;16.20;77.60
30999;DHT22;20549;50.042;8.968;2023-03-14T10:46:20;16.10;78.10
30999;DHT22;20549;50.042;8.968;2023-03-14T10:48:47;16.00;78.70
30999;DHT22;20549;50.042;8.968;2023-03-14T10:53:46;15.90;80.10
30999;DHT22;20549;50.042;8.968;2023-03-14T10:56:17;15.80;80.60
30999;DHT22;20549;50.042;8.968;2023-03-14T10:58:40;15.80;81.30
30999;DHT22;20549;50.042;8.968;2023-03-14T11:03:52;15.60;82.00
30999;DHT22;20549;50.042;8.968;2023-03-14T11:07:02;15.50;82.50
30999;DHT22;20549;50.042;8.968;2023-03-14T11:08:54;15.40;83.00
30999;DHT22;20549;50.042;8.968;2023-03-14T11:11:25;15.30;83.70
30999;DHT22;20549;50.042;8.968;2023-03-14T11:14:02;15.20;84.30
30999;DHT22;20549;50.042;8.968;2023-03-14T11:21:59;15.00;87.00
30999;DHT22;20549;50.042;8.968;2023-03-14T11:24:33;14.90;87.90
30999;DHT22;20549;50.042;8.968;2023-03-14T11:27:03;14.80;88.60
30999;DHT22;20549;50.042;8.968;2023-03-14T11:29:39;14.70;89.10
30999;DHT22;20549;50.042;8.968;2023-03-14T11:32:33;14.70;89.80
30999;DHT22;20549;50.042;8.968;2023-03-14T11:34:44;14.70;90.20
30999;DHT22;20549;50.042;8.968;2023-03-14T11:37:11;14.60;90.60
30999;DHT22;20549;50.042;8.968;2023-03-14T11:39:40;14.60;91.00
30999;DHT22;20549;50.042;8.968;2023-03-14T11:42:08;14.60;91.40
30999;DHT22;20549;50.042;8.968;2023-03-14T11:44:38;14.50;91.60
30999;DHT22;20549;50.042;8.968;2023-03-14T11:47:24;14.50;91.70
30999;DHT22;20549;50.042;8.968;2023-03-14T11:52:36;14.50;92.00
30999;DHT22;20549;50.042;8.968;2023-03-14T11:57:39;14.40;92.40
30999;DHT22;20549;50.042;8.968;2023-03-14T12:00:22;14.40;92.50
30999;DHT22;20549;50.042;8.968;2023-03-14T12:03:11;14.40;92.90
30999;DHT22;20549;50.042;8.968;2023-03-14T12:05:55;14.40;93.50
30999;DHT22;20549;50.042;8.968;2023-03-14T12:08:33;14.30;93.40
30999;DHT22;20549;50.042;8.968;2023-03-14T12:11:10;14.30;93.40
30999;DHT22;20549;50.042;8.968;2023-03-14T12:13:30;14.40;93.90
30999;DHT22;20549;50.042;8.968;2023-03-14T12:15:56;14.30;94.30
30999;DHT22;20549;50.042;8.968;2023-03-14T12:18:34;14.30;94.90
30999;DHT22;20549;50.042;8.968;2023-03-14T12:21:01;14.40;95.40
30999;DHT22;20549;50.042;8.968;2023-03-14T12:23:27;14.40;95.80
30999;DHT22;20549;50.042;8.968;2023-03-14T12:28:39;14.50;96.00
30999;DHT22;20549;50.042;8.968;2023-03-14T12:42:10;14.30;93.80
30999;DHT22;20549;50.042;8.968;2023-03-14T12:44:45;14.20;93.80
30999;DHT22;20549;50.042;8.968;2023-03-14T12:49:51;14.00;93.50
30999;DHT22;20549;50.042;8.968;2023-03-14T12:52:21;13.90;93.70
30999;DHT22;20549;50.042;8.968;2023-03-14T12:54:57;13.90;93.50
30999;DHT22;20549;50.042;8.968;2023-03-14T13:00:00;13.80;93.00
30999;DHT22;20549;50.042;8.968;2023-03-14T13:02:27;13.80;92.70
30999;DHT22;20549;50.042;8.968;2023-03-14T13:07:32;13.60;91.70
30999;DHT22;20549;50.042;8.968;2023-03-14T13:12:48;13.50;91.60
30999;DHT22;20549;50.042;8.968;2023-03-14T13:14:51;13.40;91.50
30999;DHT22;20549;50.042;8.968;2023-03-14T13:17:29;13.40;91.80
30999;DHT22;20549;50.042;8.968;2023-03-14T13:19:55;13.40;92.10
30999;DHT22;20549;50.042;8.968;2023-03-14T13:22:21;13.50;92.30
30999;DHT22;20549;50.042;8.968;2023-03-14T13:24:46;13.50;92.40
30999;DHT22;20549;50.042;8.968;2023-03-14T13:27:19;13.50;92.30
30999;DHT22;20549;50.042;8.968;2023-03-14T13:29:45;13.60;91.90
30999;DHT22;20549;50.042;8.968;2023-03-14T13:32:21;13.70;91.40
30999;DHT22;20549;50.042;8.968;2023-03-14T13:34:47;13.70;90.90
30999;DHT22;20549;50.042;8.968;2023-03-14T13:37:20;13.80;90.30
30999;DHT22;20549;50.042;8.968;2023-03-14T13:39:55;13.80;89.50
30999;DHT22;20549;50.042;8.968;2023-03-14T13:42:24;13.80;89.30
30999;DHT22;20549;50.042;8.968;2023-03-14T13:44:48;13.80;89.60
30999;DHT22;20549;50.042;8.968;2023-03-14T13:47:18;13.80;89.50
30999;DHT22;20549;50.042;8.968;2023-03-14T13:49:44;13.80;89.70
30999;DHT22;20549;50.042;8.968;2023-03-14T13:52:35;13.80;90.00
30999;DHT22;20549;50.042;8.968;2023-03-14T13:54:59;13.90;90.00
30999;DHT22;20549;50.042;8.968;2023-03-14T13:57:24;13.90;89.70
30999;DHT22;20549;50.042;8.968;2023-03-14T14:00:06;14.00;89.50
30999;DHT22;20549;50.042;8.968;2023-03-14T14:02:33;14.00;88.70
30999;DHT22;20549;50.042;8.968;2023-03-14T14:04:59;14.10;88.20
30999;DHT22;20549;50.042;8.968;2023-03-14T14:07:26;14.10;87.50
30999;DHT22;20549;50.042;8.968;2023-03-14T14:09:52;14.10;87.00
30999;DHT22;20549;50.042;8.968;2023-03-14T14:15:02;14.10;86.00
30999;DHT22;20549;50.042;8.968;2023-03-14T14:17:35;14.20;85.70
30999;DHT22;20549;50.042;8.968;2023-03-14T14:20:00;14.20;85.80
30999;DHT22;20549;50.042;8.968;2023-03-14T14:22:26;14.10;85.20
30999;DHT22;20549;50.042;8.968;2023-03-14T14:24:53;14.10;84.60
30999;DHT22;20549;50.042;8.968;2023-03-14T14:27:39;13.90;84.20
30999;DHT22;20549;50.042;8.968;2023-03-14T14:32:47;13.50;83.90
30999;DHT22;20549;50.042;8.968;2023-03-14T14:35:26;13.30;84.90
30999;DHT22;20549;50.042;8.968;2023-03-14T14:37:51;13.20;86.00
30999;DHT22;20549;50.042;8.968;2023-03-14T14:42:44;12.90;86.90
30999;DHT22;20549;50.042;8.968;2023-03-14T14:45:18;12.80;86.90
30999;DHT22;20549;50.042;8.968;2023-03-14T14:47:57;12.70;87.00
30999;DHT22;20549;50.042;8.968;2023-03-14T14:50:36;12.70;87.10
30999;DHT22;20549;50.042;8.968;2023-03-14T14:53:01;12.60;87.30
30999;DHT22;20549;50.042;8.968;2023-03-14T14:55:33;12.60;87.60
30999;DHT22;20549;50.042;8.968;2023-03-14T14:58:11;12.50;87.60
30999;DHT22;20549;50.042;8.968;2023-03-14T15:00:26;12.50;87.80
30999;DHT22;20549;50.042;8.968;2023-03-14T15:02:53;12.40;88.10
30999;DHT22;20549;50.042;8.968;2023-03-14T15:05:20;12.40;88.20
30999;DHT22;20549;50.042;8.968;2023-03-14T15:07:46;12.40;87.90
30999;DHT22;20549;50.042;8.968;2023-03-14T15:10:14;12.40;87.60
30999;DHT22;20549;50.042;8.968;2023-03-14T15:12:39;12.30;87.90
30999;DHT22;20549;50.042;8.968;2023-03-14T15:15:05;12.20;88.00
30999;DHT22;20549;50.042;8.968;2023-03-14T15:17:32;12.20;88.20
30999;DHT22;20549;50.042;8.968;2023-03-14T15:19:59;12.10;88.20
30999;DHT22;20549;50.042;8.968;2023-03-14T15:22:25;12.00;87.90
30999;DHT22;20549;50.042;8.968;2023-03-14T15:24:52;12.00;87.60
30999;DHT22;20549;50.042;8.968;2023-03-14T15:27:18;11.90;87.50
30999;DHT22;20549;50.042;8.968;2023-03-14T15:29:45;11.80;87.50
30999;DHT22;20549;50.042;8.968;2023-03-14T15:32:12;11.80;87.20
30999;DHT22;20549;50.042;8.968;2023-03-14T15:34:38;11.70;87.10
30999;DHT22;20549;50.042;8.968;2023-03-14T15:37:05;11.60;86.90
30999;DHT22;20549;50.042;8.968;2023-03-14T15:39:31;11.50;87.10
30999;DHT22;20549;50.042;8.968;2023-03-14T15:41:58;11.50;87.20
30999;DHT22;20549;50.042;8.968;2023-03-14T15:44:25;11.40;87.30
30999;DHT22;20549;50.042;8.968;2023-03-14T15:46:51;11.40;87.40
30999;DHT22;20549;50.042;8.968;2023-03-14T15:49:18;11.30;87.40
30999;DHT22;20549;50.042;8.968;2023-03-14T15:51:44;11.20;87.30
30999;DHT22;20549;50.042;8.968;2023-03-14T15:54:11;11.20;87.20
30999;DHT22;20549;50.042;8.968;2023-03-14T15:56:37;11.00;87.10
30999;DHT22;20549;50.042;8.968;2023-03-14T15:59:04;11.00;87.00
30999;DHT22;20549;50.042;8.968;2023-03-14T16:01:31;10.90;87.10
30999;DHT22;20549;50.042;8.968;2023-03-14T16:03:57;10.80;87.20
30999;DHT22;20549;50.042;8.968;2023-03-14T16:06:24;10.80;88.30
30999;DHT22;20549;50.042;8.968;2023-03-14T16:08:50;10.70;87.50
30999;DHT22;20549;50.042;8.968;2023-03-14T16:11:17;10.70;87.80
30999;DHT22;20549;50.042;8.968;2023-03-14T16:13:44;10.60;87.90
30999;DHT22;20549;50.042;8.968;2023-03-14T16:16:10;10.60;88.00
30999;DHT22;20549;50.042;8.968;2023-03-14T16:18:37;10.60;88.10
30999;DHT22;20549;50.042;8.968;2023-03-14T16:21:05;10.60;88.30
30999;DHT22;20549;50.042;8.968;2023-03-14T16:23:33;10.60;88.70
30999;DHT22;20549;50.042;8.968;2023-03-14T16:26:02;10.60;88.90
30999;DHT22;20549;50.042;8.968;2023-03-14T16:28:26;10.60;88.90